La Grange, TX (78945)

12:57 AM CST on February 11, 2016 (GMT -0600)
Horton Street | | Change Station
CLOSE
Current Station
Personal Weather Station
Location: La Grange, TX
Elevation: 344 ft
Nearby Weather Stations

Elev 344 ft 29.92 °N, 96.87 °W | Updated 9 seconds ago

Clear
Clear
54.0 °F
Feels Like 54.0 °F
N
1.3
Wind Variable Wind from South
Gusts 2.5 mph

Today
High -- | Low -- °F
--% Chance of Precip.
Yesterday
High -- | Low -- °F
Precip. -- in
Pressure 30.16 in
Visibility 10.0 miles
Clouds Clear
Dew Point 14 °F
Humidity 20%
Rainfall 0.00 in
Snow Depth Not available.
7:11 AM 6:12 PM
Waxing Crescent, 10% visible
METAR K3T5 110635Z AUTO 20007KT 10SM CLR 12/07 A3016 RMK AO2 T01190070
Pressure 30.16 in
Visibility 10.0 miles
Clouds Clear
Dew Point 14 °F
Humidity 20%
Rainfall 0.00 in
Snow Depth Not available.
7:11 AM 6:12 PM
Waxing Crescent, 10% visible
METAR K3T5 110635Z AUTO 20007KT 10SM CLR 12/07 A3016 RMK AO2 T01190070

10-Day Weather Forecast

Almanac

Astronomy

Feb. 11, 2016 Rise Set
Actual Time
Civil Twilight
Nautical Twilight
Astronomical Twilight
Moon
Length of Visible Light
Length of Day
Tomorrow will be .
, % of the Moon is Illuminated

Today's Extremes

State Highs State Lows

Community

WunderPhotos

Upload Photos

1,892,028 photos uploaded!

WunderBlog® & News

Nearby

Air Quality

  Air Quality AQ Index Pollutant
Not available.

Snow Depth

Station Depth Elevation

Earthquake Activity

City Distance Mag. Time & Date
Minimum magnitude displayed is 2.5.

Coastal Water Temperatures

Place Temperature

Stations

Nearby Weather Stations

Station Location Temp. Windchill Dew Point Humidity Wind Precip. Elev Updated Type
                   

Watches & Warnings

There are currently no watches in effect.